createdAt,value
2019-02-08T00:08:11.853Z,21.6
2019-02-08T00:18:16.661Z,21.5
2019-02-08T00:28:20.358Z,21.5
2019-02-08T00:38:24.034Z,21.5
2019-02-08T00:48:27.725Z,21.5
2019-02-08T00:58:31.426Z,21.5
2019-02-08T01:08:35.105Z,21.6
2019-02-08T01:18:38.807Z,21.6
2019-02-08T01:28:42.938Z,21.7
2019-02-08T01:38:46.612Z,21.7
2019-02-08T01:48:50.294Z,21.6
2019-02-08T01:58:53.968Z,21.6
2019-02-08T02:08:57.644Z,21.7
2019-02-08T02:19:01.324Z,21.7
2019-02-08T02:29:05.000Z,21.7
2019-02-08T02:39:08.677Z,21.7
2019-02-08T02:49:12.355Z,21.7
2019-02-08T02:59:16.044Z,21.6
2019-02-08T03:09:19.735Z,21.6
2019-02-08T03:19:23.469Z,21.6
2019-02-08T03:29:27.156Z,21.6
2019-02-08T03:39:30.839Z,21.5
2019-02-08T03:49:34.504Z,21.5
2019-02-08T03:59:38.164Z,21.4
2019-02-08T04:09:41.837Z,21.5
2019-02-08T04:19:45.513Z,21.5
2019-02-08T04:29:49.204Z,21.5
2019-02-08T04:39:52.888Z,21.6
2019-02-08T04:49:56.528Z,21.6
2019-02-08T05:00:00.254Z,21.6
2019-02-08T05:10:03.918Z,21.6
2019-02-08T05:20:07.596Z,21.6
2019-02-08T05:30:11.290Z,21.6
2019-02-08T05:40:14.971Z,21.6
2019-02-08T05:50:18.601Z,21.9
2019-02-08T06:00:22.275Z,22.1
2019-02-08T06:10:25.979Z,22.1
2019-02-08T06:20:29.758Z,22.1
2019-02-08T06:30:33.473Z,22.2
2019-02-08T06:40:37.167Z,22.3
2019-02-08T06:50:40.805Z,22.3
2019-02-08T07:00:44.477Z,22.3
2019-02-08T07:10:48.151Z,22.3
2019-02-08T07:20:51.831Z,22.3
2019-02-08T07:30:55.504Z,22.3
2019-02-08T07:40:59.184Z,22.3
2019-02-08T07:51:02.811Z,22.1
2019-02-08T08:01:06.486Z,21.9
2019-02-08T08:11:10.168Z,21.9
2019-02-08T08:21:13.846Z,22
2019-02-08T08:31:17.514Z,22.1
2019-02-08T08:41:21.186Z,22.2
2019-02-08T08:51:24.830Z,13.2
2019-02-08T09:01:28.521Z,13.3
2019-02-08T09:11:32.211Z,12.1
2019-02-08T09:21:35.890Z,11.5
2019-02-08T09:31:39.574Z,14.1
2019-02-08T09:41:43.253Z,19.7
2019-02-08T09:51:47.437Z,20.7
2019-02-08T10:01:51.249Z,21.1
2019-02-08T10:11:54.885Z,21.4
2019-02-08T10:21:58.565Z,21.9
2019-02-08T10:32:02.245Z,21.9
2019-02-08T10:42:05.928Z,22.1
2019-02-08T10:52:09.567Z,22.2
2019-02-08T11:02:13.247Z,22.4
2019-02-08T11:12:16.916Z,22.4
2019-02-08T11:22:20.592Z,22.6
2019-02-08T11:32:24.271Z,22.7
2019-02-08T11:42:27.957Z,22.7
2019-02-08T11:52:31.621Z,22.8
2019-02-08T12:02:40.328Z,22.9
2019-02-08T12:12:44.352Z,23
2019-02-08T12:22:48.062Z,22.9
2019-02-08T12:32:51.741Z,23.1
2019-02-08T12:42:55.418Z,23.1
2019-02-08T12:52:59.078Z,23.1
2019-02-08T13:03:02.748Z,23
2019-02-08T13:13:06.420Z,23
2019-02-08T13:23:10.089Z,23.1
2019-02-08T13:33:13.760Z,23.1
2019-02-08T13:43:17.491Z,23
2019-02-08T13:53:21.137Z,23.1
2019-02-08T14:03:24.812Z,23.3
2019-02-08T14:13:28.540Z,24.5
2019-02-08T14:23:32.227Z,17.9
2019-02-08T14:33:35.906Z,17.5
2019-02-08T14:43:39.584Z,16
2019-02-08T14:53:43.242Z,15.6
2019-02-08T15:03:46.928Z,16.3
2019-02-08T15:13:50.634Z,15.7
2019-02-08T15:23:54.307Z,15.5
2019-02-08T15:33:59.955Z,14.8
2019-02-08T15:44:03.798Z,15.2
2019-02-08T15:54:07.577Z,14.4
2019-02-08T16:04:11.271Z,13
2019-02-08T16:14:14.932Z,13.4
2019-02-08T16:24:18.597Z,18.3
2019-02-08T16:34:22.278Z,20.4
2019-02-08T16:44:25.957Z,21
2019-02-08T16:54:29.623Z,21.2
2019-02-08T17:04:33.290Z,21.4
2019-02-08T17:14:36.967Z,21.6
